Situs API Video Gratis Terbaik

AVDBAPI.COM

Cari katalog, periksa data, dan salin URL API bersih dari satu dasbor cepat.

Telegram Gabung komunitas Telegram untuk update!
Today
0
Pembaruan Hari Ini
Censored
314089
Video Disensor
Total
474268
Total Video

Daftar Video

Data terbaru diurutkan berdasarkan waktu pembaruan.

ID Nama CODE Kategori Diperbarui API
270457 072217_556 Koleksi Model Seksi Moe Osaki 072217_556 Tanpa sensor 2025-08-29 19:14:30 API
270456 091119-001 Buku Foto Memek Hasumi Yoshioka 091119-001 Tanpa sensor 2025-08-29 19:14:20 API
270455 H0930-TK0001 Egawa Minae Wanita Cantik Usia 29 Tahun H0930-TK0001 Tanpa sensor 2025-08-29 19:14:10 API
270454 C0930-HITOZUMA1264 Miyuki Ichii Cantik Berusia 23 Tahun C0930-HITOZUMA1264 Tanpa sensor 2025-08-29 19:14:00 API
270453 FC2-PPV-1572008 [Uncensored Leak] Ko O Yu 02 Konishi Yu MXGS-797 Saking Enaknya Oma-ko ~Tubuh yang bikin pengen ngentot terus menerus~ FC2-PPV-1572008 Tanpa sensor 2025-08-29 19:13:50 API
270452 K1333 Wanita Mangsa K1333 Tanpa sensor 2025-08-29 19:13:40 API
270451 H4610-KI200402 Maho Katsuragi, 25 Tahun H4610-KI200402 Tanpa sensor 2025-08-29 19:13:30 API
270450 091319-001 Hana Aoyama dan pacarnya bercinta liar selama 3 hari 091319-001 Tanpa sensor 2025-08-29 19:13:20 API
270449 072517_557 Salah Terjemahan! Pakai Kacamata Hitam Sambil Riding Saddle! Maki Kurata 072517_557 Tanpa sensor 2025-08-29 19:13:10 API
270448 050218-265 Tante Maki Hojo ~ Kenangan Manis ~ 050218-265 Tanpa sensor 2025-08-29 19:13:00 API
270447 102718-01 Gadis Amatir Kulit Putih Mulus Payudara F Fucking Inside 102718-01 Tanpa sensor 2025-08-29 19:12:50 API
270446 H0930-KI190505 Kayo Misawa Wanita 29 Tahun H0930-KI190505 Tanpa sensor 2025-08-29 19:12:40 API
270445 H4610-KI200404 Gold Pack Spesial Gadis 20 Tahun H4610-KI200404 Tanpa sensor 2025-08-29 19:12:30 API
270443 091419-001 Dynamite Prairie Kisumi 091419-001 Tanpa sensor 2025-08-29 19:12:10 API
270442 C0930-KI181211 Gadis Cantik 22 Tahun Yui Mizuguchi C0930-KI181211 Tanpa sensor 2025-08-29 19:12:00 API
270441 072617_001 Mio Futaba ogah blowjob 072617_001 Tanpa sensor 2025-08-29 19:11:50 API
270440 050418-266 Membesarkan Istri Muda Hamil dengan Bulu Kemaluan Alami yang Liar 050418-266 Tanpa sensor 2025-08-29 19:11:40 API
270439 FC2-PPV-1565139 [Wanita Cantik Berdada Besar x Wanita Cantik Berdada Besar] Video Premiere: Gadis Sekolah Elit dan Mantan Gravure Idol Mengalami Pengalaman Lesbian Pertama Lalu Dikentot Threesome FC2-PPV-1565139 Tanpa sensor 2025-08-29 19:11:30 API
270438 H0930-KI190504 Koleksi Video Request Paling Hot H0930-KI190504 Tanpa sensor 2025-08-29 19:11:20 API
270437 C0930-KI181213 Kayo Nishihara Wanita Matang 40 Tahun yang Seksi C0930-KI181213 Tanpa sensor 2025-08-29 19:11:10 API
270436 072817_558 Istri Tetangga yang Nakal Tanpa Bra Saat Buang Sampah di Pagi Hari 072817_558 Tanpa sensor 2025-08-29 19:11:00 API
270435 091519-001 Minuman Eloy GP ~ Sekali Minum Langsung Basah, Jadi Pengen Nungging Terus! ~ Ami 091519-001 Tanpa sensor 2025-08-29 19:10:50 API
270433 050518-267 Anal Merah Merona ~ Kalau keluar di dalam rasanya bakal mantap banget ~ 050518-267 Tanpa sensor 2025-08-29 19:10:30 API
270432 K1335 Wanita Mangsa K1335 Tanpa sensor 2025-08-29 19:10:20 API
270431 H4610-TK0015 Aisaki Yasushima Gadis 20 Tahun H4610-TK0015 Tanpa sensor 2025-08-29 19:10:10 API
270430 110118-01 Memanggil Miss Deriheru yang polos untuk kemudian dikentot habis 110118-01 Tanpa sensor 2025-08-29 19:10:00 API
270429 072917 Koleksi Model Seksi Leila Kitagawa 072917_559 Tanpa sensor 2025-08-29 19:09:50 API
270428 H0930-TK0002 Aya Hiruma Cantik Berusia 35 Tahun H0930-TK0002 Tanpa sensor 2025-08-29 19:09:40 API
270427 C0930-KI181215 Masturbasi Selfie Yang Sangat Menggairahkan C0930-KI181215 Tanpa sensor 2025-08-29 19:09:30 API
270426 050618-268 Teknik Kenikmatan Wanita Cantik Berkimono Usia 50 050618-268 Tanpa sensor 2025-08-29 19:09:20 API
270425 FC2-PPV-1561526 [Awas Bocor] Terbongkarnya seluruh rahasia video tersembunyi di tempat pijat pria dan negosiasi seks yang nakal FC2-PPV-1561526 Tanpa sensor 2025-08-29 19:09:10 API
270424 091719-001 Kalau kamu melakukan itu sambil pakai seragam, suaramu bakal jadi aneh banget, Haruka Juri 091719-001 Tanpa sensor 2025-08-29 19:09:00 API
270423 C0930-KI181216 Megumi Higashihara, Gadis Hot 23 Tahun C0930-KI181216 Tanpa sensor 2025-08-29 19:08:50 API
270422 080117_001 Serina Fukami nggak mau blowjob 080117_001 Tanpa sensor 2025-08-29 19:08:40 API
270420 H4610-KI200405 Rei Tanaka Gadis 19 Tahun yang Menggoda H4610-KI200405 Tanpa sensor 2025-08-29 19:08:20 API
270419 050818-269 Pembantu Cantik Membersihkan Kontol 050818-269 Tanpa sensor 2025-08-29 19:08:10 API
270418 H0930-KI190507 Natsuko Hayashiba, 31 Tahun H0930-KI190507 Tanpa sensor 2025-08-29 19:08:00 API
270417 110318-01 11018-01 Cewek Geng Motor Amatir ~ Nemu Cewek Nakal Langsung Dikentot Sampai Puas ~ 110318-01 Tanpa sensor 2025-08-29 19:07:50 API
270416 K1336 Wanita Mangsa K1336 Tanpa sensor 2025-08-29 19:07:40 API
270415 C0930-HITOZUMA1265 Rei Uchijima, 21 tahun C0930-HITOZUMA1265 Tanpa sensor 2025-08-29 19:07:30 API
270414 091819-001 Koleksi Terbaik Nana Ninomiya 091819-001 Tanpa sensor 2025-08-29 19:07:20 API
270413 080217_560 Sujikko Club Dengan Si Gila Susu Maki Miyazawa 080217_560 Tanpa sensor 2025-08-29 19:07:10 API
270412 FC2-PPV-1554195 [Private Shooting] Istri baru yang ingin menabung untuk pernikahan dipaksa ngentot mulut! Tangan dan kaki diikat saat direkam! Dikencingi sperma sampai meluber keluar! FC2-PPV-1554195 Tanpa sensor 2025-08-29 19:07:00 API
270411 H4610-KI200409 Rimi Yano Gadis 24 Tahun H4610-KI200409 Tanpa sensor 2025-08-29 19:06:50 API
270410 H0930-KI190509 Wanita Matang 41 Tahun Mikako Ancho H0930-KI190509 Tanpa sensor 2025-08-29 19:06:40 API
270409 HEYZO-2066 Sepulang Sekolah: File Gadis Cantik No.33 ~ Menjinakkan Gadis Naif ~ HEYZO-2066 Tanpa sensor 2025-08-29 19:06:30 API
270408 051018-270 Dokumentasi Syuting Pertama Istri Amatir Sachiko Oda 051018-270 Tanpa sensor 2025-08-29 19:06:20 API
270407 110418-01 Koleksi Memek Paling Berharga ~ Silakan Lihat Memek Kana ~ 110418-01 Tanpa sensor 2025-08-29 19:06:10 API
270406 C0930-KI181218 Machiko Koda, Wanita 31 Tahun Yang Seksi C0930-KI181218 Tanpa sensor 2025-08-29 19:06:00 API
270404 091919-001 Rahasia Tersembunyi ~ Anak Gadis yang Mengulum Miliknya Sendiri ~ Riina Okamoto 091919-001 Tanpa sensor 2025-08-29 19:05:40 API